Time;durP1;ratioP1;P1;durP2;ratioP2;P2;SDS_P1;SDS_P2;PMS_P1;PMS_P2;Temp;Humidity;BMP_temperature;BMP_pressure;BME280_temperature;BME280_humidity;BME280_pressure;Samples;Min_cycle;Max_cycle;Signal;HPM_P1;HPM_P2
2022/10/16 00:00:54;;;;;;;2.50;0.90;;;;;;;13.79;77.56;100356.50;105419;1296;69646;-76
2022/10/16 00:03:21;;;;;;;3.10;0.80;;;;;;;13.72;77.61;100357.64;105437;1291;59193;-76
2022/10/16 00:05:59;;;;;;;2.90;0.80;;;;;;;13.67;77.76;100357.64;105491;1287;62345;-77
2022/10/16 00:08:26;;;;;;;3.10;0.80;;;;;;;13.61;77.98;100352.33;105466;1283;58896;-76
2022/10/16 00:10:52;;;;;;;3.30;1.10;;;;;;;13.56;78.17;100353.12;105412;1297;74391;-76
2022/10/16 00:13:20;;;;;;;2.70;0.90;;;;;;;13.51;78.35;100361.34;105400;1298;58497;-76
2022/10/16 00:15:47;;;;;;;1.80;0.70;;;;;;;13.46;78.81;100369.66;105495;1295;72466;-76
2022/10/16 00:18:14;;;;;;;2.20;0.70;;;;;;;13.44;78.89;100365.36;105377;1289;58679;-76
2022/10/16 00:20:41;;;;;;;2.20;0.80;;;;;;;13.41;79.31;100360.14;105566;1286;58749;-76
2022/10/16 00:23:08;;;;;;;1.90;0.80;;;;;;;13.38;79.41;100360.58;105586;1294;72507;-76
2022/10/16 00:25:34;;;;;;;2.10;0.70;;;;;;;13.38;79.66;100367.39;105462;1290;69988;-77
2022/10/16 00:28:00;;;;;;;1.90;0.80;;;;;;;13.38;79.31;100372.87;105516;1294;58571;-76
2022/10/16 00:30:27;;;;;;;3.10;0.80;;;;;;;13.38;79.44;100375.70;105376;1294;58377;-76
2022/10/16 00:32:54;;;;;;;4.90;1.00;;;;;;;13.39;79.59;100378.83;105428;1296;60631;-76
2022/10/16 00:35:21;;;;;;;1.70;0.70;;;;;;;13.37;79.45;100384.96;105423;1293;73696;-73
2022/10/16 00:37:47;;;;;;;2.90;1.20;;;;;;;13.34;79.72;100387.30;105461;1295;71057;-73
2022/10/16 00:40:14;;;;;;;2.90;1.10;;;;;;;13.30;79.99;100382.27;105488;1289;58155;-73
2022/10/16 00:42:43;;;;;;;2.80;1.10;;;;;;;13.29;80.34;100386.20;105408;1297;58359;-73
2022/10/16 00:45:10;;;;;;;4.20;1.30;;;;;;;13.28;80.36;100389.46;105403;1296;59062;-73
2022/10/16 00:47:41;;;;;;;3.50;1.10;;;;;;;13.29;80.50;100392.18;105457;1297;72544;-72
2022/10/16 00:50:29;;;;;;;2.80;1.00;;;;;;;13.29;80.75;100395.71;105406;1290;68626;-72
2022/10/16 00:52:58;;;;;;;2.60;1.20;;;;;;;13.30;80.87;100395.84;105449;1297;73289;-73
2022/10/16 00:55:26;;;;;;;3.30;1.10;;;;;;;13.30;80.95;100391.25;105430;1289;60780;-73
2022/10/16 00:57:52;;;;;;;1.80;1.00;;;;;;;13.29;81.12;100386.13;105462;1294;58831;-72
2022/10/16 01:00:23;;;;;;;3.00;1.00;;;;;;;13.29;81.44;100394.16;105504;1294;72562;-73
2022/10/16 01:02:58;;;;;;;2.60;1.10;;;;;;;13.29;81.50;100394.01;105493;1286;69935;-72
2022/10/16 01:06:01;;;;;;;3.80;1.10;;;;;;;13.29;81.78;100398.13;105377;1297;71402;-73
2022/10/16 01:08:44;;;;;;;2.30;1.00;;;;;;;13.27;81.92;100396.75;105359;1294;62797;-73
2022/10/16 01:11:36;;;;;;;3.00;1.30;;;;;;;13.26;82.49;100398.10;105495;1294;58648;-73
2022/10/16 01:14:29;;;;;;;3.00;1.30;;;;;;;13.23;82.93;100397.27;105484;1294;72684;-73
2022/10/16 01:17:09;;;;;;;3.20;1.00;;;;;;;13.21;83.15;100399.15;105412;1294;69703;-72
2022/10/16 01:20:10;;;;;;;3.30;1.20;;;;;;;13.15;83.10;100401.86;105493;1286;72466;-73
2022/10/16 01:22:47;;;;;;;2.60;1.20;;;;;;;13.09;83.51;100397.71;105482;1290;61094;-73
2022/10/16 01:25:26;;;;;;;2.00;1.20;;;;;;;13.05;83.80;100397.73;105462;1297;58637;-72
2022/10/16 01:27:52;;;;;;;3.80;1.20;;;;;;;13.03;84.09;100398.41;105483;1289;72636;-72
2022/10/16 01:30:30;;;;;;;2.90;1.30;;;;;;;13.01;84.14;100400.58;105510;1294;69697;-73
2022/10/16 01:33:03;;;;;;;2.40;1.50;;;;;;;12.99;84.35;100407.54;105407;1295;71344;-73
2022/10/16 01:35:36;;;;;;;3.30;1.60;;;;;;;12.97;84.57;100410.96;105478;1296;60958;-72
2022/10/16 01:38:25;;;;;;;2.90;1.80;;;;;;;12.96;84.63;100418.66;105422;1294;60551;-73
2022/10/16 01:41:00;;;;;;;4.20;1.70;;;;;;;12.91;84.70;100418.23;105479;1289;73237;-72
2022/10/16 01:43:35;;;;;;;4.30;2.10;;;;;;;12.87;85.09;100422.27;105471;1296;71005;-73
2022/10/16 01:46:02;;;;;;;4.40;1.90;;;;;;;12.84;85.48;100424.81;105498;1294;70893;-72
2022/10/16 01:48:30;;;;;;;3.90;1.90;;;;;;;12.80;85.70;100426.48;105383;1294;60723;-73
2022/10/16 01:51:05;;;;;;;3.70;1.90;;;;;;;12.76;85.84;100431.38;105360;1289;59191;-72
2022/10/16 01:53:32;;;;;;;4.60;2.30;;;;;;;12.74;87.01;100433.03;105401;1295;72592;-72
2022/10/16 01:56:01;;;;;;;4.70;2.10;;;;;;;12.72;87.34;100429.50;105484;1287;69568;-72
2022/10/16 01:58:33;;;;;;;2.90;2.00;;;;;;;12.74;88.08;100426.66;105429;1286;70859;-73
2022/10/16 02:01:02;;;;;;;4.00;2.10;;;;;;;12.77;88.61;100423.11;105459;1295;60620;-72
2022/10/16 02:03:28;;;;;;;3.40;2.50;;;;;;;12.79;89.04;100424.71;105379;1296;58958;-72
2022/10/16 02:05:58;;;;;;;3.70;1.90;;;;;;;12.82;89.37;100425.19;105479;1294;58693;-72
2022/10/16 02:08:28;;;;;;;3.20;2.00;;;;;;;12.86;89.75;100424.91;105372;1297;69903;-72
2022/10/16 02:10:56;;;;;;;3.60;2.40;;;;;;;12.90;89.94;100425.52;105342;1289;72467;-72
2022/10/16 02:13:32;;;;;;;3.30;2.20;;;;;;;12.92;90.23;100429.75;105369;1290;62188;-72
2022/10/16 02:15:59;;;;;;;3.20;1.90;;;;;;;12.96;90.69;100434.27;105399;1290;58997;-72
2022/10/16 02:18:29;;;;;;;3.70;2.20;;;;;;;12.98;90.92;100436.57;105355;1295;73663;-72
2022/10/16 02:21:00;;;;;;;4.40;2.00;;;;;;;13.01;90.82;100438.15;105437;1294;69908;-72
2022/10/16 02:23:45;;;;;;;3.40;2.10;;;;;;;13.04;90.72;100438.20;105324;1297;72639;-72
2022/10/16 02:26:15;;;;;;;3.20;2.40;;;;;;;13.05;90.55;100433.62;105521;1294;61845;-73
2022/10/16 02:28:51;;;;;;;5.10;2.20;;;;;;;13.06;90.79;100440.02;105347;1292;59182;-72
2022/10/16 02:31:26;;;;;;;3.50;2.30;;;;;;;13.08;91.06;100442.73;105470;1287;72513;-72
2022/10/16 02:33:54;;;;;;;4.80;2.20;;;;;;;13.07;91.28;100444.15;105505;1294;69605;-72
2022/10/16 02:36:21;;;;;;;4.30;2.10;;;;;;;13.09;91.38;100449.66;105373;1290;71134;-72
2022/10/16 02:38:48;;;;;;;4.50;2.00;;;;;;;13.09;91.74;100450.92;105441;1296;59448;-72
2022/10/16 02:41:14;;;;;;;4.60;1.90;;;;;;;13.09;92.32;100452.65;105455;1292;58158;-72
2022/10/16 02:43:41;;;;;;;3.00;2.00;;;;;;;13.10;92.19;100449.01;105464;1293;72354;-73
2022/10/16 02:46:07;;;;;;;4.60;2.10;;;;;;;13.11;92.58;100442.55;105527;1294;58127;-72
2022/10/16 02:48:34;;;;;;;4.00;1.90;;;;;;;13.13;92.58;100432.14;105469;1294;58106;-72
2022/10/16 02:51:01;;;;;;;4.40;2.10;;;;;;;13.13;92.55;100432.95;105506;1290;60494;-72
2022/10/16 02:53:27;;;;;;;3.40;1.80;;;;;;;13.15;92.70;100436.09;105399;1296;58152;-72
2022/10/16 02:55:53;;;;;;;3.70;2.00;;;;;;;13.16;92.64;100437.45;105497;1294;58175;-72
2022/10/16 02:58:20;;;;;;;5.90;2.20;;;;;;;13.17;92.80;100441.75;105452;1288;58589;-72
2022/10/16 03:00:46;;;;;;;3.50;2.00;;;;;;;13.17;92.52;100441.50;105484;1294;58522;-72
2022/10/16 03:03:13;;;;;;;3.70;1.80;;;;;;;13.17;92.47;100436.91;105451;1294;58134;-72
2022/10/16 03:05:39;;;;;;;4.20;2.20;;;;;;;13.14;92.42;100441.69;105389;1293;58356;-72
2022/10/16 03:08:06;;;;;;;3.00;1.90;;;;;;;13.13;92.57;100437.63;105469;1294;58097;-72
2022/10/16 03:10:32;;;;;;;2.90;2.00;;;;;;;13.12;92.77;100441.52;105460;1295;58603;-72
2022/10/16 03:12:59;;;;;;;5.90;2.20;;;;;;;13.11;92.67;100443.00;105496;1293;58596;-72
2022/10/16 03:15:25;;;;;;;3.50;2.00;;;;;;;13.11;92.56;100433.96;105470;1292;58933;-72
2022/10/16 03:17:52;;;;;;;3.90;1.90;;;;;;;13.11;92.48;100433.90;105432;1295;58196;-72
2022/10/16 03:20:18;;;;;;;4.30;2.10;;;;;;;13.11;92.30;100439.46;105494;1286;58331;-72
2022/10/16 03:22:45;;;;;;;4.90;2.00;;;;;;;13.10;92.36;100444.83;105518;1294;58141;-72
2022/10/16 03:25:11;;;;;;;3.80;2.00;;;;;;;13.07;92.49;100452.19;105410;1297;58299;-72
2022/10/16 03:27:37;;;;;;;3.00;2.00;;;;;;;13.05;92.64;100455.58;105484;1294;58745;-72
2022/10/16 03:30:04;;;;;;;3.80;2.10;;;;;;;13.03;92.70;100454.42;105377;1297;58231;-72
2022/10/16 03:32:31;;;;;;;3.60;2.10;;;;;;;13.02;92.76;100455.80;105439;1289;58252;-72
2022/10/16 03:34:57;;;;;;;4.20;2.00;;;;;;;13.02;92.63;100449.77;105511;1295;58000;-72
2022/10/16 03:37:24;;;;;;;4.00;2.20;;;;;;;13.01;92.34;100444.04;105362;1298;58204;-72
2022/10/16 03:39:51;;;;;;;4.50;2.30;;;;;;;13.00;92.29;100442.23;105406;1288;60816;-72
2022/10/16 03:42:18;;;;;;;5.20;2.20;;;;;;;12.98;92.32;100446.11;105488;1294;58384;-72
2022/10/16 03:44:44;;;;;;;3.70;2.40;;;;;;;12.95;91.90;100443.20;105444;1287;58803;-72
2022/10/16 03:47:10;;;;;;;4.80;2.20;;;;;;;12.94;92.15;100444.65;105442;1287;59005;-72
2022/10/16 03:49:37;;;;;;;4.00;2.40;;;;;;;12.92;91.77;100450.71;105491;1287;58362;-72
2022/10/16 03:52:03;;;;;;;4.50;2.90;;;;;;;12.91;91.95;100449.08;105461;1296;58170;-72
2022/10/16 03:54:29;;;;;;;5.30;2.90;;;;;;;12.88;91.87;100442.50;105480;1294;58176;-72
2022/10/16 03:56:56;;;;;;;5.30;3.10;;;;;;;12.85;91.80;100447.36;105427;1295;58211;-72
2022/10/16 03:59:22;;;;;;;5.30;3.50;;;;;;;12.80;91.76;100444.84;105437;1295;58206;-72
2022/10/16 04:01:49;;;;;;;5.20;3.40;;;;;;;12.75;91.94;100446.64;105457;1294;58229;-72
2022/10/16 04:04:15;;;;;;;4.80;3.50;;;;;;;12.71;91.77;100445.59;105363;1287;58264;-72
2022/10/16 04:06:41;;;;;;;7.70;3.60;;;;;;;12.68;91.99;100450.98;105445;1294;58233;-72
2022/10/16 04:09:08;;;;;;;7.90;3.90;;;;;;;12.63;92.34;100449.30;105410;1289;58215;-72
2022/10/16 04:11:34;;;;;;;8.40;4.10;;;;;;;12.60;92.61;100454.27;105410;1289;58298;-72
2022/10/16 04:14:01;;;;;;;6.50;3.70;;;;;;;12.59;92.75;100449.28;105458;1288;58557;-72
2022/10/16 04:16:27;;;;;;;6.00;3.70;;;;;;;12.55;92.90;100450.97;105438;1297;58260;-72
2022/10/16 04:18:57;;;;;;;6.10;3.60;;;;;;;12.54;93.51;100455.59;105448;1295;58134;-72
2022/10/16 04:21:23;;;;;;;6.20;3.30;;;;;;;12.54;94.08;100467.30;105439;1289;72459;-72
2022/10/16 04:23:50;;;;;;;6.20;3.40;;;;;;;12.55;94.25;100469.40;105377;1298;58880;-73
2022/10/16 04:26:16;;;;;;;6.00;3.40;;;;;;;12.57;94.12;100470.14;105427;1301;58065;-72
2022/10/16 04:28:42;;;;;;;6.20;3.50;;;;;;;12.58;94.59;100474.48;105423;1294;58029;-72
2022/10/16 04:31:09;;;;;;;6.40;3.10;;;;;;;12.62;94.48;100477.93;105425;1289;58236;-72
2022/10/16 04:33:35;;;;;;;5.20;3.20;;;;;;;12.66;94.18;100472.55;105517;1293;58048;-72
2022/10/16 04:36:03;;;;;;;6.00;2.90;;;;;;;12.68;94.06;100477.63;105537;1292;58520;-72
2022/10/16 04:38:30;;;;;;;4.50;3.10;;;;;;;12.68;94.25;100476.56;105427;1287;71483;-72
2022/10/16 04:40:56;;;;;;;4.60;3.00;;;;;;;12.67;94.01;100478.25;105204;1291;61089;-72
2022/10/16 04:43:23;;;;;;;3.60;2.70;;;;;;;12.67;93.93;100485.20;105463;1287;58902;-72
2022/10/16 04:45:50;;;;;;;5.20;2.60;;;;;;;12.66;94.05;100484.41;105517;1294;72864;-73
2022/10/16 04:48:18;;;;;;;5.80;2.70;;;;;;;12.62;93.55;100475.80;105331;1297;70339;-73
2022/10/16 04:50:44;;;;;;;4.00;2.80;;;;;;;12.59;93.71;100472.90;105369;1297;71385;-72
2022/10/16 04:53:11;;;;;;;4.30;2.50;;;;;;;12.56;93.83;100479.84;105480;1297;58164;-72
2022/10/16 04:55:37;;;;;;;4.70;2.80;;;;;;;12.54;93.96;100479.62;105386;1295;58682;-72
2022/10/16 04:58:05;;;;;;;5.10;2.80;;;;;;;12.53;93.95;100473.79;105406;1288;72274;-72
2022/10/16 05:00:31;;;;;;;5.80;2.80;;;;;;;12.51;94.16;100479.67;105504;1287;68913;-72
2022/10/16 05:02:59;;;;;;;4.80;2.90;;;;;;;12.50;94.44;100482.66;105465;1294;58166;-72
2022/10/16 05:05:26;;;;;;;4.90;2.70;;;;;;;12.50;94.43;100481.96;105448;1280;61725;-72
2022/10/16 05:07:52;;;;;;;4.40;2.70;;;;;;;12.50;94.59;100484.14;105425;1288;58802;-72
2022/10/16 05:10:19;;;;;;;5.20;3.30;;;;;;;12.50;94.66;100488.84;105437;1297;58391;-72
2022/10/16 05:12:46;;;;;;;5.10;3.10;;;;;;;12.52;94.94;100494.02;105429;1289;69906;-72
2022/10/16 05:15:12;;;;;;;6.00;3.30;;;;;;;12.54;94.89;100498.49;105302;1297;71344;-73
2022/10/16 05:17:39;;;;;;;4.90;3.40;;;;;;;12.56;94.77;100506.24;105440;1286;58170;-72
2022/10/16 05:20:11;;;;;;;4.00;3.20;;;;;;;12.57;94.94;100503.38;105402;1294;60399;-72
2022/10/16 05:22:37;;;;;;;6.30;3.60;;;;;;;12.59;94.78;100497.17;105462;1292;72309;-72
2022/10/16 05:25:04;;;;;;;5.50;3.60;;;;;;;12.61;94.90;100501.00;105407;1298;71161;-73
2022/10/16 05:27:30;;;;;;;5.50;3.70;;;;;;;12.63;95.40;100505.69;105498;1294;72575;-72
2022/10/16 05:29:57;;;;;;;7.20;3.50;;;;;;;12.65;95.28;100504.75;105453;1293;59782;-72
2022/10/16 05:32:23;;;;;;;5.70;3.80;;;;;;;12.63;95.38;100510.98;105486;1294;59023;-72
2022/10/16 05:34:50;;;;;;;5.10;3.20;;;;;;;12.62;95.25;100517.84;105366;1294;58540;-72
2022/10/16 05:37:16;;;;;;;6.00;3.40;;;;;;;12.63;95.46;100520.42;105433;1296;58251;-77
2022/10/16 05:39:43;;;;;;;6.50;3.30;;;;;;;12.64;95.91;100527.19;105206;1292;58181;-77
2022/10/16 05:42:09;;;;;;;6.20;3.40;;;;;;;12.67;96.28;100529.66;105387;1301;58211;-77
2022/10/16 05:44:36;;;;;;;4.70;3.00;;;;;;;12.71;96.20;100522.80;105461;1290;58308;-77
2022/10/16 05:47:02;;;;;;;7.20;3.30;;;;;;;12.73;96.08;100524.11;105494;1286;58202;-77
2022/10/16 05:49:28;;;;;;;6.30;2.90;;;;;;;12.78;96.07;100526.06;105396;1297;59627;-77
2022/10/16 05:51:55;;;;;;;4.90;3.10;;;;;;;12.80;96.26;100522.77;105211;1300;58240;-77
2022/10/16 05:54:21;;;;;;;4.10;2.80;;;;;;;12.83;96.16;100519.02;105465;1293;58289;-77
2022/10/16 05:56:48;;;;;;;3.90;2.80;;;;;;;12.86;96.01;100518.90;105403;1294;58594;-77
2022/10/16 05:59:14;;;;;;;5.10;2.70;;;;;;;12.89;96.22;100526.27;105382;1301;58114;-77
2022/10/16 06:01:41;;;;;;;5.30;2.50;;;;;;;12.91;96.20;100523.65;105219;1299;58231;-77
2022/10/16 06:04:09;;;;;;;6.60;2.60;;;;;;;12.94;95.84;100523.96;105317;1297;58116;-77
2022/10/16 06:06:36;;;;;;;3.40;2.30;;;;;;;12.97;95.93;100533.85;105389;1297;61954;-77
2022/10/16 06:09:03;;;;;;;4.10;2.30;;;;;;;13.00;95.79;100545.88;105381;1298;58900;-77
2022/10/16 06:11:31;;;;;;;5.60;2.30;;;;;;;13.04;95.72;100538.64;105396;1290;72391;-77
2022/10/16 06:14:01;;;;;;;5.60;2.60;;;;;;;13.09;95.38;100543.65;105344;1297;69596;-77
2022/10/16 06:16:28;;;;;;;3.90;2.20;;;;;;;13.13;95.08;100543.26;105214;1296;71983;-77
2022/10/16 06:18:59;;;;;;;5.60;2.10;;;;;;;13.17;95.06;100543.40;105307;1298;60621;-77
2022/10/16 06:21:27;;;;;;;4.20;2.00;;;;;;;13.21;94.82;100543.27;105435;1293;58537;-77
2022/10/16 06:23:55;;;;;;;3.90;1.90;;;;;;;13.25;94.70;100539.73;105362;1290;72730;-78
2022/10/16 06:26:24;;;;;;;3.30;1.80;;;;;;;13.27;94.54;100544.41;105363;1297;70842;-77
2022/10/16 06:28:51;;;;;;;3.70;1.80;;;;;;;13.30;94.45;100556.67;105300;1300;70582;-77
2022/10/16 06:31:18;;;;;;;5.40;1.90;;;;;;;13.35;94.38;100565.55;105316;1298;61022;-77
2022/10/16 06:33:46;;;;;;;4.10;1.70;;;;;;;13.39;94.05;100562.09;105475;1295;59138;-77
2022/10/16 06:36:15;;;;;;;4.30;1.80;;;;;;;13.43;93.65;100569.73;105374;1291;72150;-77
2022/10/16 06:38:43;;;;;;;3.20;1.80;;;;;;;13.48;93.68;100579.85;105374;1304;71360;-77
2022/10/16 06:41:12;;;;;;;3.10;1.70;;;;;;;13.54;93.36;100571.48;105317;1290;73218;-77
2022/10/16 06:43:39;;;;;;;3.00;1.70;;;;;;;13.58;93.15;100568.75;105312;1297;60471;-77
2022/10/16 06:46:10;;;;;;;2.90;1.80;;;;;;;13.68;93.26;100577.45;105342;1295;60280;-77
2022/10/16 06:48:37;;;;;;;3.20;1.90;;;;;;;13.81;92.69;100576.23;105313;1297;73382;-77
2022/10/16 06:51:14;;;;;;;5.10;2.10;;;;;;;13.87;92.18;100584.36;105386;1289;70939;-77
2022/10/16 06:53:43;;;;;;;3.00;1.70;;;;;;;13.92;92.07;100581.52;105343;1297;72726;-77
2022/10/16 06:56:29;;;;;;;4.50;1.80;;;;;;;13.99;91.88;100581.83;105347;1298;60424;-76
2022/10/16 06:58:56;;;;;;;3.20;1.80;;;;;;;14.05;91.63;100579.27;105345;1294;58425;-77
2022/10/16 07:01:24;;;;;;;3.10;1.90;;;;;;;14.14;91.53;100590.42;104978;1293;73647;-74
2022/10/16 07:03:51;;;;;;;3.30;1.90;;;;;;;14.23;91.19;100590.80;102889;1297;70184;-74
2022/10/16 07:06:19;;;;;;;2.90;1.60;;;;;;;14.33;90.61;100592.27;103501;1294;72704;-75
2022/10/16 07:08:47;;;;;;;3.00;1.70;;;;;;;14.41;90.22;100581.41;103334;1303;61241;-75
2022/10/16 07:11:17;;;;;;;3.60;1.60;;;;;;;14.50;89.85;100582.08;103259;1302;60593;-76
2022/10/16 07:13:45;;;;;;;3.10;1.80;;;;;;;14.60;89.64;100587.34;103518;1304;73736;-75
2022/10/16 07:16:22;;;;;;;3.20;1.80;;;;;;;14.71;89.05;100591.98;103275;1296;71085;-75
2022/10/16 07:18:51;;;;;;;3.50;1.70;;;;;;;14.79;88.88;100595.52;102731;1298;71712;-76
2022/10/16 07:21:22;;;;;;;3.10;1.80;;;;;;;14.86;88.24;100607.68;102848;1298;61952;-75
2022/10/16 07:23:54;;;;;;;3.00;1.60;;;;;;;14.93;88.08;100615.53;102754;1304;60564;-75
2022/10/16 07:26:21;;;;;;;2.80;1.60;;;;;;;14.98;87.81;100615.73;103070;1304;73661;-75
2022/10/16 07:28:48;;;;;;;3.20;1.70;;;;;;;15.03;87.56;100618.90;103055;1297;70091;-76
2022/10/16 07:31:17;;;;;;;3.50;1.70;;;;;;;15.05;87.02;100621.36;103521;1297;72824;-75
2022/10/16 07:33:45;;;;;;;3.40;1.70;;;;;;;15.08;87.11;100622.84;103709;1297;60601;-75
2022/10/16 07:36:12;;;;;;;2.50;1.50;;;;;;;15.10;86.68;100623.75;102523;1298;60611;-75
2022/10/16 07:38:42;;;;;;;3.50;1.50;;;;;;;15.08;86.34;100633.74;102900;1305;73808;-76
2022/10/16 07:41:12;;;;;;;2.30;1.50;;;;;;;15.10;86.30;100631.76;102978;1295;71443;-75
2022/10/16 07:43:39;;;;;;;3.10;1.50;;;;;;;15.12;86.05;100642.16;103830;1302;73047;-76
2022/10/16 07:46:06;;;;;;;2.30;1.50;;;;;;;15.22;85.79;100639.03;103133;1303;60907;-75
2022/10/16 07:48:34;;;;;;;4.20;1.60;;;;;;;15.38;85.51;100637.95;103500;1300;60467;-75
2022/10/16 07:51:03;;;;;;;2.60;1.70;;;;;;;15.51;84.51;100647.14;102620;1294;72807;-76
2022/10/16 07:53:30;;;;;;;4.40;1.80;;;;;;;15.60;84.19;100655.18;104045;1298;70825;-76
2022/10/16 07:56:05;;;;;;;3.10;1.50;;;;;;;15.67;84.12;100661.29;102981;1302;71266;-76
2022/10/16 07:58:33;;;;;;;2.20;1.50;;;;;;;15.71;83.68;100662.16;102704;1290;62424;-76
2022/10/16 08:01:05;;;;;;;3.10;1.70;;;;;;;15.73;83.59;100662.48;103248;1295;61104;-77
2022/10/16 08:03:31;;;;;;;2.60;1.40;;;;;;;15.75;83.34;100669.38;102709;1305;75158;-76
2022/10/16 08:05:59;;;;;;;2.30;1.20;;;;;;;15.82;83.19;100670.21;102448;1296;70899;-75
2022/10/16 08:08:26;;;;;;;2.10;1.20;;;;;;;15.95;82.66;100663.88;103353;1297;71077;-74
2022/10/16 08:10:53;;;;;;;3.60;1.30;;;;;;;16.07;81.86;100672.02;102757;1303;60530;-75
2022/10/16 08:13:19;;;;;;;2.40;1.00;;;;;;;16.22;80.95;100678.77;103018;1297;60372;-75
2022/10/16 08:15:47;;;;;;;2.20;1.00;;;;;;;16.31;79.51;100681.98;103147;1304;72679;-74
2022/10/16 08:18:14;;;;;;;2.30;0.80;;;;;;;16.46;79.05;100685.98;102851;1302;71450;-76
2022/10/16 08:20:42;;;;;;;2.60;0.90;;;;;;;16.60;78.22;100693.49;103205;1297;71137;-77
2022/10/16 08:23:11;;;;;;;2.30;0.90;;;;;;;16.73;77.57;100702.30;102854;1306;60594;-76
2022/10/16 08:25:38;;;;;;;2.20;0.70;;;;;;;16.85;76.88;100699.45;102450;1295;60358;-76
2022/10/16 08:28:07;;;;;;;1.00;0.60;;;;;;;16.94;75.95;100694.95;103737;1303;71474;-76
2022/10/16 08:30:34;;;;;;;2.00;0.70;;;;;;;16.99;75.91;100697.92;103108;1302;73125;-76
2022/10/16 08:33:01;;;;;;;1.50;0.50;;;;;;;16.97;74.70;100701.52;103015;1299;71873;-77
2022/10/16 08:35:28;;;;;;;1.30;0.70;;;;;;;17.00;75.03;100697.67;103256;1297;62010;-77
2022/10/16 08:37:54;;;;;;;1.70;0.60;;;;;;;17.06;75.29;100699.89;102828;1304;60626;-75
2022/10/16 08:40:32;;;;;;;1.40;0.60;;;;;;;17.12;74.76;100701.95;103687;1297;58818;-76
2022/10/16 08:43:17;;;;;;;1.40;0.50;;;;;;;17.15;74.41;100694.59;102804;1298;69839;-75
2022/10/16 08:46:15;;;;;;;2.40;0.60;;;;;;;17.19;74.09;100705.08;102909;1288;71305;-76
2022/10/16 08:48:51;;;;;;;2.20;0.70;;;;;;;17.16;73.43;100709.63;103395;1299;61773;-76
2022/10/16 08:51:26;;;;;;;1.80;0.60;;;;;;;17.22;73.63;100705.46;102761;1303;60603;-75
2022/10/16 08:54:03;;;;;;;1.90;0.60;;;;;;;17.19;72.90;100713.98;103862;1303;72399;-76
2022/10/16 08:56:32;;;;;;;2.40;0.50;;;;;;;17.13;73.70;100714.02;102596;1302;71152;-73
2022/10/16 08:58:59;;;;;;;1.30;0.50;;;;;;;17.07;74.11;100723.84;104001;1292;72624;-72
2022/10/16 09:01:43;;;;;;;1.70;0.50;;;;;;;17.11;73.48;100728.48;102542;1298;62178;-72
2022/10/16 09:04:34;;;;;;;1.30;0.50;;;;;;;17.20;73.71;100731.34;103830;1280;60377;-72
2022/10/16 09:07:11;;;;;;;2.80;0.70;;;;;;;17.35;73.81;100732.74;103101;1297;72868;-72
2022/10/16 09:09:44;;;;;;;2.00;0.70;;;;;;;17.48;73.22;100734.77;102967;1301;70526;-73
2022/10/16 09:12:28;;;;;;;1.70;0.70;;;;;;;17.55;71.04;100741.58;104331;1294;71324;-72
2022/10/16 09:15:01;;;;;;;2.00;0.60;;;;;;;17.57;70.22;100741.85;103892;1295;61919;-71
2022/10/16 09:17:46;;;;;;;2.60;0.70;;;;;;;17.62;70.37;100733.18;103582;1297;60748;-71
2022/10/16 09:20:53;;;;;;;1.70;0.70;;;;;;;17.65;69.51;100735.66;103149;1302;72356;-71
2022/10/16 09:23:26;;;;;;;2.50;0.60;;;;;;;17.70;69.95;100742.59;103013;1300;70641;-72
2022/10/16 09:25:55;;;;;;;2.50;0.80;;;;;;;17.73;69.26;100760.07;103262;1304;71409;-71
2022/10/16 09:28:21;;;;;;;2.50;0.80;;;;;;;17.79;69.40;100748.51;103175;1293;61775;-71
2022/10/16 09:30:49;;;;;;;3.00;0.70;;;;;;;17.82;68.99;100755.73;103827;1294;60492;-71
2022/10/16 09:33:18;;;;;;;2.60;0.70;;;;;;;17.91;69.44;100757.53;105338;1294;71995;-71
2022/10/16 09:35:49;;;;;;;1.60;0.50;;;;;;;17.98;68.92;100763.85;105388;1299;69735;-71
2022/10/16 09:38:26;;;;;;;1.10;0.50;;;;;;;17.97;67.78;100762.69;105478;1296;72430;-71
2022/10/16 09:40:53;;;;;;;2.50;0.70;;;;;;;17.99;67.58;100771.30;105457;1293;60441;-72
2022/10/16 09:43:30;;;;;;;2.20;0.60;;;;;;;18.03;67.65;100769.26;105499;1295;59152;-71
2022/10/16 09:46:03;;;;;;;2.20;0.70;;;;;;;18.08;67.49;100771.52;105465;1292;72339;-72
2022/10/16 09:48:39;;;;;;;3.00;0.80;;;;;;;18.08;66.32;100781.97;105495;1288;69792;-71
2022/10/16 09:51:15;;;;;;;2.70;0.70;;;;;;;18.13;66.55;100780.05;105446;1293;72499;-72
2022/10/16 09:53:44;;;;;;;3.10;0.80;;;;;;;18.18;66.52;100784.27;105443;1294;61117;-71
2022/10/16 09:56:21;;;;;;;2.50;0.60;;;;;;;18.18;66.58;100777.42;105500;1294;60044;-72
2022/10/16 09:58:55;;;;;;;1.90;0.60;;;;;;;18.25;66.69;100785.17;105360;1296;71563;-72
2022/10/16 10:01:29;;;;;;;3.20;0.60;;;;;;;18.32;66.34;100789.69;105492;1295;70875;-72
2022/10/16 10:04:01;;;;;;;1.90;0.60;;;;;;;18.34;65.79;100810.95;104031;1300;72470;-72
2022/10/16 10:06:34;;;;;;;1.60;0.60;;;;;;;18.29;65.36;100802.98;102856;1295;60852;-71
2022/10/16 10:09:05;;;;;;;2.50;0.70;;;;;;;18.34;65.42;100803.75;104350;1298;60367;-70
2022/10/16 10:11:49;;;;;;;1.80;0.60;;;;;;;18.42;65.39;100804.36;104753;1295;73719;-72
2022/10/16 10:14:25;;;;;;;3.00;0.50;;;;;;;18.56;65.43;100802.62;103483;1302;70733;-70
2022/10/16 10:17:01;;;;;;;3.40;0.60;;;;;;;18.62;63.75;100800.73;104185;1292;71735;-70
2022/10/16 10:19:28;;;;;;;2.50;0.60;;;;;;;18.77;64.52;100802.15;103195;1292;60576;-71
2022/10/16 10:21:58;;;;;;;2.20;0.50;;;;;;;18.90;62.56;100803.55;103916;1296;60813;-71
2022/10/16 10:24:24;;;;;;;2.10;0.50;;;;;;;19.06;62.37;100803.38;103051;1301;60585;-71
2022/10/16 10:27:00;;;;;;;1.90;0.50;;;;;;;19.21;62.33;100819.80;103606;1298;60608;-70
2022/10/16 10:29:57;;;;;;;2.50;0.60;;;;;;;19.27;59.95;100809.62;104141;1293;72273;-70
2022/10/16 10:32:43;;;;;;;2.00;0.70;;;;;;;19.26;59.47;100817.55;104017;1303;60519;-73
2022/10/16 10:35:22;;;;;;;1.40;0.50;;;;;;;19.21;58.83;100814.56;103419;1296;60420;-72
2022/10/16 10:38:12;;;;;;;2.20;0.50;;;;;;;19.12;58.43;100823.31;103281;1294;71858;-72
2022/10/16 10:40:56;;;;;;;2.90;0.50;;;;;;;19.01;57.81;100827.77;103782;1302;69439;-71
2022/10/16 10:43:41;;;;;;;2.20;0.50;;;;;;;19.04;59.02;100818.27;103409;1287;71444;-72
2022/10/16 10:46:18;;;;;;;2.10;0.60;;;;;;;19.10;59.35;100829.89;104024;1302;59331;-72
2022/10/16 10:48:57;;;;;;;2.80;0.50;;;;;;;19.17;57.96;100836.32;102826;1296;60544;-70
2022/10/16 10:51:39;;;;;;;2.00;0.40;;;;;;;19.11;57.48;100840.24;103937;1303;72955;-71
2022/10/16 10:54:35;;;;;;;3.40;0.50;;;;;;;19.08;57.88;100839.95;103102;1295;70494;-73
2022/10/16 10:57:12;;;;;;;1.90;0.50;;;;;;;18.98;57.50;100839.07;103608;1296;71237;-72
2022/10/16 10:59:58;;;;;;;2.10;0.60;;;;;;;18.82;57.96;100842.73;103248;1302;60479;-72
2022/10/16 11:02:50;;;;;;;3.40;0.60;;;;;;;18.80;58.55;100835.08;105006;1295;60512;-71
2022/10/16 11:05:27;;;;;;;2.50;0.50;;;;;;;18.91;58.62;100830.50;103519;1299;72881;-71
2022/10/16 11:08:01;;;;;;;2.50;0.50;;;;;;;19.03;58.51;100832.05;104177;1295;69818;-71
2022/10/16 11:10:45;;;;;;;2.20;0.60;;;;;;;19.15;57.94;100832.67;103269;1295;72707;-71
2022/10/16 11:13:26;;;;;;;1.80;0.70;;;;;;;19.24;57.48;100834.70;103637;1300;60400;-72
2022/10/16 11:15:58;;;;;;;2.10;0.40;;;;;;;19.12;57.30;100836.97;103553;1292;60551;-72
2022/10/16 11:18:40;;;;;;;2.90;0.50;;;;;;;18.96;57.09;100839.50;104022;1303;73960;-71
2022/10/16 11:21:10;;;;;;;2.40;0.40;;;;;;;18.95;57.33;100838.73;103538;1299;71168;-72
2022/10/16 11:23:48;;;;;;;3.00;0.50;;;;;;;19.07;57.35;100839.55;103642;1299;71576;-72
2022/10/16 11:26:21;;;;;;;3.10;0.50;;;;;;;19.26;56.21;100844.50;102998;1299;60562;-72
2022/10/16 11:28:56;;;;;;;2.30;0.60;;;;;;;19.44;55.66;100845.08;103938;1297;60369;-72
2022/10/16 11:31:32;;;;;;;4.10;0.80;;;;;;;19.74;54.98;100845.14;103475;1298;74062;-72
2022/10/16 11:34:21;;;;;;;4.30;0.70;;;;;;;20.05;54.20;100847.34;104961;1296;68716;-72